createdAt,value
2023-05-12T00:02:31.417Z,14.39
2023-05-12T00:05:18.138Z,14.37
2023-05-12T00:08:05.054Z,14.36
2023-05-12T00:10:51.854Z,14.36
2023-05-12T00:13:38.628Z,14.34
2023-05-12T00:16:25.531Z,14.33
2023-05-12T00:19:12.362Z,14.33
2023-05-12T00:21:59.191Z,14.32
2023-05-12T00:24:45.929Z,14.32
2023-05-12T00:27:32.995Z,14.33
2023-05-12T00:30:19.976Z,14.33
2023-05-12T00:33:06.883Z,14.32
2023-05-12T00:35:53.645Z,14.32
2023-05-12T00:38:41.296Z,14.30
2023-05-12T00:41:28.315Z,14.31
2023-05-12T00:44:15.013Z,14.30
2023-05-12T00:47:01.832Z,14.31
2023-05-12T00:49:48.540Z,14.29
2023-05-12T00:52:35.235Z,14.28
2023-05-12T00:55:21.966Z,14.28
2023-05-12T00:58:08.764Z,14.29
2023-05-12T01:00:56.276Z,14.26
2023-05-12T01:03:43.355Z,14.25
2023-05-12T01:06:34.107Z,14.24
2023-05-12T01:09:21.004Z,14.21
2023-05-12T01:12:07.765Z,14.19
2023-05-12T01:14:54.983Z,14.19
2023-05-12T01:17:43.436Z,14.19
2023-05-12T01:20:30.269Z,14.19
2023-05-12T01:23:18.652Z,14.19
2023-05-12T01:26:06.806Z,14.17
2023-05-12T01:28:53.605Z,14.16
2023-05-12T01:31:40.435Z,14.15
2023-05-12T01:34:27.210Z,14.14
2023-05-12T01:37:13.915Z,14.12
2023-05-12T01:40:00.732Z,14.10
2023-05-12T01:42:47.494Z,14.09
2023-05-12T01:45:34.267Z,14.09
2023-05-12T01:48:20.973Z,14.08
2023-05-12T01:51:08.588Z,14.10
2023-05-12T01:53:55.335Z,14.11
2023-05-12T01:56:42.114Z,14.11
2023-05-12T01:59:28.808Z,14.11
2023-05-12T02:02:15.531Z,14.12
2023-05-12T02:05:02.410Z,14.12
2023-05-12T02:07:49.130Z,14.08
2023-05-12T02:10:35.894Z,14.05
2023-05-12T02:13:23.323Z,14.05
2023-05-12T02:16:10.512Z,14.02
2023-05-12T02:18:57.250Z,14.02
2023-05-12T02:21:46.145Z,14.06
2023-05-12T02:24:32.895Z,14.07
2023-05-12T02:27:19.608Z,14.07
2023-05-12T02:30:06.588Z,14.04
2023-05-12T02:32:53.415Z,14.03
2023-05-12T02:35:40.127Z,14.01
2023-05-12T02:38:27.492Z,13.99
2023-05-12T02:41:14.236Z,13.97
2023-05-12T02:44:00.987Z,13.98
2023-05-12T02:46:47.701Z,13.97
2023-05-12T02:49:34.373Z,13.97
2023-05-12T02:52:22.132Z,13.96
2023-05-12T02:55:08.913Z,13.97
2023-05-12T02:57:55.818Z,13.97
2023-05-12T03:00:42.540Z,13.97
2023-05-12T03:03:29.442Z,13.96
2023-05-12T03:06:16.143Z,13.94
2023-05-12T03:09:02.885Z,13.89
2023-05-12T03:11:49.696Z,13.84
2023-05-12T03:14:36.404Z,13.85
2023-05-12T03:17:23.143Z,13.83
2023-05-12T03:20:10.092Z,13.85
2023-05-12T03:22:56.854Z,13.83
2023-05-12T03:25:43.571Z,13.80
2023-05-12T03:28:30.300Z,13.77
2023-05-12T03:31:17.087Z,13.74
2023-05-12T03:34:03.805Z,13.71
2023-05-12T03:36:50.545Z,13.70
2023-05-12T03:39:37.327Z,13.72
2023-05-12T03:42:24.508Z,13.77
2023-05-12T03:45:11.673Z,13.79
2023-05-12T03:47:58.451Z,13.81
2023-05-12T03:50:45.217Z,13.81
2023-05-12T03:53:31.964Z,13.81
2023-05-12T03:56:18.675Z,13.81
2023-05-12T03:59:05.512Z,13.81
2023-05-12T04:01:53.420Z,13.82
2023-05-12T04:04:40.253Z,13.83
2023-05-12T04:07:27.185Z,13.83
2023-05-12T04:10:13.879Z,13.84
2023-05-12T04:13:00.821Z,13.84
2023-05-12T04:15:49.246Z,13.84
2023-05-12T04:18:36.760Z,13.84
2023-05-12T04:21:23.578Z,13.84
2023-05-12T04:24:10.344Z,13.81
2023-05-12T04:26:57.387Z,13.80
2023-05-12T04:29:44.258Z,13.78
2023-05-12T04:32:31.000Z,13.75
2023-05-12T04:35:17.749Z,13.74
2023-05-12T04:38:04.558Z,13.72
2023-05-12T04:40:51.330Z,13.67
2023-05-12T04:46:27.727Z,13.64
2023-05-12T04:49:14.399Z,13.65
2023-05-12T04:52:01.098Z,13.63
2023-05-12T04:54:47.859Z,13.60
2023-05-12T04:57:34.717Z,13.57
2023-05-12T05:00:21.501Z,13.57
2023-05-12T05:03:08.294Z,13.55
2023-05-12T05:05:55.090Z,13.56
2023-05-12T05:08:41.797Z,13.56
2023-05-12T05:11:28.482Z,13.53
2023-05-12T05:14:15.183Z,13.52
2023-05-12T05:17:02.306Z,13.47
2023-05-12T05:19:55.962Z,13.46
2023-05-12T05:22:45.811Z,13.45
2023-05-12T05:25:33.069Z,13.43
2023-05-12T05:28:19.770Z,13.41
2023-05-12T05:31:06.629Z,13.39
2023-05-12T05:33:53.389Z,13.39
2023-05-12T05:36:40.470Z,13.41
2023-05-12T05:39:30.694Z,13.42
2023-05-12T05:42:17.792Z,13.40
2023-05-12T05:45:04.747Z,13.37
2023-05-12T05:47:53.167Z,13.38
2023-05-12T05:50:39.970Z,13.40
2023-05-12T05:53:27.713Z,13.38
2023-05-12T05:56:14.501Z,13.37
2023-05-12T05:59:03.291Z,13.38
2023-05-12T06:01:50.042Z,13.39
2023-05-12T06:04:37.021Z,13.37
2023-05-12T06:07:23.723Z,13.38
2023-05-12T06:10:10.517Z,13.36
2023-05-12T06:12:57.220Z,13.36
2023-05-12T06:15:43.930Z,13.35
2023-05-12T06:18:30.768Z,13.38
2023-05-12T06:21:17.511Z,13.40
2023-05-12T06:24:04.367Z,13.39
2023-05-12T06:26:51.038Z,13.39
2023-05-12T06:29:37.772Z,13.42
2023-05-12T06:32:24.559Z,13.45
2023-05-12T06:35:11.711Z,13.48
2023-05-12T06:37:58.487Z,13.53
2023-05-12T06:40:45.241Z,13.57
2023-05-12T06:43:31.954Z,13.59
2023-05-12T06:46:18.893Z,13.59
2023-05-12T06:49:05.985Z,13.60
2023-05-12T06:51:52.716Z,13.62
2023-05-12T06:54:39.410Z,13.62
2023-05-12T06:57:26.368Z,13.63
2023-05-12T07:00:13.441Z,13.65
2023-05-12T07:03:00.211Z,13.65
2023-05-12T07:05:46.981Z,13.66
2023-05-12T07:08:33.799Z,13.68
2023-05-12T07:11:20.531Z,13.71
2023-05-12T07:14:07.311Z,13.72
2023-05-12T07:16:54.065Z,13.73
2023-05-12T07:19:40.806Z,13.76
2023-05-12T07:22:27.505Z,13.77
2023-05-12T07:25:14.305Z,13.79
2023-05-12T07:28:01.252Z,13.79
2023-05-12T07:30:47.948Z,13.81
2023-05-12T07:33:35.063Z,13.82
2023-05-12T07:36:22.189Z,13.83
2023-05-12T07:39:08.952Z,13.83
2023-05-12T07:41:55.608Z,13.84
2023-05-12T07:44:42.413Z,13.86
2023-05-12T07:47:29.249Z,13.88
2023-05-12T07:50:16.377Z,13.86
2023-05-12T07:53:04.307Z,13.76
2023-05-12T07:55:50.970Z,13.80
2023-05-12T07:58:37.662Z,13.85
2023-05-12T08:01:24.547Z,13.89
2023-05-12T08:04:11.655Z,13.92
2023-05-12T08:06:58.463Z,13.92
2023-05-12T08:09:45.261Z,13.93
2023-05-12T08:12:32.428Z,13.92
2023-05-12T08:15:19.289Z,13.91
2023-05-12T08:18:06.539Z,13.91
2023-05-12T08:20:53.327Z,13.90
2023-05-12T08:23:40.264Z,13.89
2023-05-12T08:26:27.138Z,13.90
2023-05-12T08:29:15.412Z,13.89
2023-05-12T08:32:02.416Z,13.88
2023-05-12T08:34:49.090Z,13.87
2023-05-12T08:37:35.751Z,13.89
2023-05-12T08:40:23.308Z,13.89
2023-05-12T08:43:13.994Z,13.88
2023-05-12T08:46:02.572Z,13.89
2023-05-12T08:48:50.289Z,13.90
2023-05-12T08:51:37.078Z,13.90
2023-05-12T08:54:23.780Z,13.92
2023-05-12T08:57:10.532Z,13.92
2023-05-12T08:59:59.468Z,13.93
2023-05-12T09:02:53.293Z,13.93
2023-05-12T09:05:41.201Z,13.95
2023-05-12T09:08:29.321Z,13.95
2023-05-12T09:11:16.068Z,13.96
2023-05-12T09:14:04.526Z,13.97
2023-05-12T09:16:57.771Z,13.98
2023-05-12T09:19:44.469Z,14.00
2023-05-12T09:22:31.613Z,14.02
2023-05-12T09:25:19.328Z,14.04
2023-05-12T09:28:06.324Z,14.06
2023-05-12T09:30:52.982Z,14.07
2023-05-12T09:33:39.621Z,14.09
2023-05-12T09:36:26.501Z,14.10
2023-05-12T09:39:13.523Z,14.10
2023-05-12T09:42:00.483Z,14.12
2023-05-12T09:44:47.213Z,14.12
2023-05-12T09:47:34.399Z,14.15
2023-05-12T09:50:22.854Z,14.14
2023-05-12T09:53:09.986Z,14.14
2023-05-12T09:55:56.687Z,14.14
2023-05-12T09:58:45.115Z,14.16
2023-05-12T10:01:32.048Z,14.16
2023-05-12T10:04:18.876Z,14.18
2023-05-12T10:07:06.586Z,14.18
2023-05-12T10:09:53.279Z,14.20
2023-05-12T10:12:40.072Z,14.20
2023-05-12T10:15:27.008Z,14.20
2023-05-12T10:18:14.270Z,14.21
2023-05-12T10:21:01.179Z,14.21
2023-05-12T10:23:47.976Z,14.21
2023-05-12T10:26:35.768Z,14.21
2023-05-12T10:29:22.742Z,14.23
2023-05-12T10:32:09.587Z,14.24
2023-05-12T10:35:06.951Z,14.24
2023-05-12T10:37:53.672Z,14.24
2023-05-12T10:40:51.574Z,14.26
2023-05-12T10:43:39.597Z,14.25
2023-05-12T10:46:27.291Z,14.28
2023-05-12T10:49:15.555Z,14.29
2023-05-12T10:52:02.271Z,14.30
2023-05-12T10:54:49.021Z,14.31
2023-05-12T10:57:36.324Z,14.32
2023-05-12T11:00:25.830Z,14.33
2023-05-12T11:03:14.881Z,14.34
2023-05-12T11:06:04.908Z,14.36
2023-05-12T11:08:53.128Z,14.37
2023-05-12T11:11:40.467Z,14.38
2023-05-12T11:14:27.451Z,14.39
2023-05-12T11:17:14.869Z,14.39
2023-05-12T11:20:02.028Z,14.40
2023-05-12T11:22:48.824Z,14.40
2023-05-12T11:25:35.728Z,14.42
2023-05-12T11:28:22.611Z,14.42
2023-05-12T11:31:09.288Z,14.43
2023-05-12T11:34:12.764Z,14.43
2023-05-12T11:37:00.151Z,14.44
2023-05-12T11:39:46.896Z,14.42
2023-05-12T11:42:33.610Z,14.34
2023-05-12T11:45:23.605Z,14.34
2023-05-12T11:50:23.512Z,14.23
2023-05-12T11:53:13.593Z,14.24
2023-05-12T11:56:00.637Z,14.27
2023-05-12T11:58:57.522Z,14.31
2023-05-12T12:01:46.627Z,14.36
2023-05-12T12:04:40.671Z,14.39
2023-05-12T12:07:35.750Z,14.43
2023-05-12T12:10:22.563Z,14.45
2023-05-12T12:13:09.384Z,14.49
2023-05-12T12:15:56.228Z,14.51
2023-05-12T12:18:43.412Z,14.53
2023-05-12T12:21:30.419Z,14.56
2023-05-12T12:24:17.550Z,14.57
2023-05-12T12:27:05.410Z,14.57
2023-05-12T12:29:52.242Z,14.58
2023-05-12T12:32:39.591Z,14.60
2023-05-12T12:35:26.777Z,14.62
2023-05-12T12:38:13.606Z,14.64
2023-05-12T12:41:00.460Z,14.65
2023-05-12T12:43:47.341Z,14.66
2023-05-12T12:46:34.270Z,14.66
2023-05-12T12:49:22.016Z,14.68
2023-05-12T12:52:09.127Z,14.69
2023-05-12T12:54:56.948Z,14.69
2023-05-12T12:57:43.757Z,14.70
2023-05-12T13:00:30.582Z,14.68
2023-05-12T13:03:20.070Z,14.72
2023-05-12T13:06:07.325Z,14.72
2023-05-12T13:08:54.305Z,14.71
2023-05-12T13:11:41.249Z,14.71
2023-05-12T13:14:28.088Z,14.71
2023-05-12T13:17:14.962Z,14.72
2023-05-12T13:20:02.332Z,14.71
2023-05-12T13:22:49.310Z,14.71
2023-05-12T13:25:36.137Z,14.72
2023-05-12T13:28:22.935Z,14.73
2023-05-12T13:31:09.924Z,14.73
2023-05-12T13:33:56.904Z,14.75
2023-05-12T13:36:43.748Z,14.76
2023-05-12T13:39:30.633Z,14.76
2023-05-12T13:42:17.456Z,14.78
2023-05-12T13:45:05.150Z,14.78
2023-05-12T13:47:51.985Z,14.79
2023-05-12T13:50:38.993Z,14.80
2023-05-12T13:53:25.797Z,14.80
2023-05-12T13:56:12.732Z,14.83
2023-05-12T13:58:59.603Z,14.82
2023-05-12T14:01:46.951Z,14.82
2023-05-12T14:04:33.977Z,14.83
2023-05-12T14:07:21.025Z,14.84
2023-05-12T14:10:08.164Z,14.83
2023-05-12T14:12:55.415Z,14.85
2023-05-12T14:15:49.457Z,14.85
2023-05-12T14:18:37.660Z,14.85
2023-05-12T14:21:24.547Z,14.85
2023-05-12T14:24:11.812Z,14.85
2023-05-12T14:26:59.565Z,14.86
2023-05-12T14:29:46.391Z,14.87
2023-05-12T14:32:34.367Z,14.84
2023-05-12T14:35:21.751Z,14.85
2023-05-12T14:38:09.241Z,14.84
2023-05-12T14:40:56.067Z,14.85
2023-05-12T14:43:42.923Z,14.87
2023-05-12T14:46:29.796Z,14.86
2023-05-12T14:49:20.649Z,14.87
2023-05-12T14:52:08.290Z,14.88
2023-05-12T14:54:55.273Z,14.87
2023-05-12T14:57:42.148Z,14.86
2023-05-12T15:00:28.967Z,14.87
2023-05-12T15:03:16.500Z,14.86
2023-05-12T15:06:06.996Z,14.88
2023-05-12T15:08:54.340Z,14.90
2023-05-12T15:11:44.489Z,14.91
2023-05-12T15:14:31.324Z,14.89
2023-05-12T15:17:18.493Z,14.90
2023-05-12T15:20:06.782Z,14.92
2023-05-12T15:22:54.454Z,14.92
2023-05-12T15:25:41.856Z,14.92
2023-05-12T15:28:28.686Z,14.91
2023-05-12T15:31:15.706Z,14.92
2023-05-12T15:34:03.007Z,14.91
2023-05-12T15:36:50.884Z,14.93
2023-05-12T15:39:37.704Z,14.94
2023-05-12T15:42:30.103Z,14.94
2023-05-12T15:45:19.804Z,14.93
2023-05-12T15:48:08.780Z,14.93
2023-05-12T15:50:56.572Z,14.93
2023-05-12T15:53:43.474Z,14.94
2023-05-12T15:56:30.387Z,14.95
2023-05-12T15:59:17.297Z,14.97
2023-05-12T16:02:04.167Z,14.95
2023-05-12T16:04:51.052Z,14.94
2023-05-12T16:07:38.773Z,14.94
2023-05-12T16:10:25.610Z,14.96
2023-05-12T16:13:13.758Z,14.98
2023-05-12T16:16:01.091Z,15.01
2023-05-12T16:18:47.978Z,15.03
2023-05-12T16:21:34.882Z,15.02
2023-05-12T16:24:21.889Z,15.03
2023-05-12T16:27:08.835Z,15.03
2023-05-12T16:29:55.727Z,15.02
2023-05-12T16:32:42.658Z,15.01
2023-05-12T16:35:29.445Z,15.01
2023-05-12T16:38:16.385Z,15.03
2023-05-12T16:41:03.219Z,15.03
2023-05-12T16:43:50.025Z,15.01
2023-05-12T16:46:37.729Z,15.02
2023-05-12T16:49:26.092Z,15.03
2023-05-12T16:52:14.768Z,15.05
2023-05-12T16:55:01.583Z,15.07
2023-05-12T16:57:48.402Z,15.05
2023-05-12T17:00:35.247Z,15.04
2023-05-12T17:03:22.881Z,15.06
2023-05-12T17:06:09.845Z,15.07
2023-05-12T17:08:56.638Z,15.06
2023-05-12T17:11:43.461Z,15.08
2023-05-12T17:14:30.832Z,15.07
2023-05-12T17:17:17.645Z,15.08
2023-05-12T17:20:06.027Z,15.09
2023-05-12T17:22:53.379Z,15.09
2023-05-12T17:25:40.236Z,15.11
2023-05-12T17:28:27.494Z,15.13
2023-05-12T17:31:14.347Z,15.11
2023-05-12T17:34:01.212Z,15.10
2023-05-12T17:36:48.588Z,15.06
2023-05-12T17:39:35.981Z,15.05
2023-05-12T17:42:23.154Z,15.03
2023-05-12T17:45:10.586Z,15.03
2023-05-12T17:47:57.417Z,15.05
2023-05-12T17:50:44.316Z,15.05
2023-05-12T17:53:31.833Z,15.04
2023-05-12T17:56:18.739Z,15.04
2023-05-12T17:59:05.551Z,15.05
2023-05-12T18:01:52.497Z,15.04
2023-05-12T18:04:39.833Z,15.04
2023-05-12T18:07:27.156Z,15.04
2023-05-12T18:10:14.202Z,15.06
2023-05-12T18:13:00.985Z,15.06
2023-05-12T18:15:49.014Z,15.07
2023-05-12T18:18:35.881Z,15.05
2023-05-12T18:21:22.887Z,15.05
2023-05-12T18:24:09.720Z,15.05
2023-05-12T18:26:56.538Z,15.05
2023-05-12T18:29:43.481Z,15.05
2023-05-12T18:32:31.548Z,15.07
2023-05-12T18:35:19.705Z,15.07
2023-05-12T18:38:07.535Z,15.05
2023-05-12T18:40:54.412Z,15.06
2023-05-12T18:43:43.041Z,15.04
2023-05-12T18:46:29.863Z,14.99
2023-05-12T18:49:16.730Z,14.92
2023-05-12T18:52:03.999Z,14.87
2023-05-12T18:54:50.938Z,14.88
2023-05-12T18:57:37.842Z,14.89
2023-05-12T19:00:27.490Z,14.89
2023-05-12T19:03:14.372Z,14.89
2023-05-12T19:06:01.467Z,14.90
2023-05-12T19:08:48.375Z,14.90
2023-05-12T19:11:35.244Z,14.90
2023-05-12T19:14:22.538Z,14.91
2023-05-12T19:17:09.656Z,14.89
2023-05-12T19:19:56.496Z,14.88
2023-05-12T19:22:44.061Z,14.85
2023-05-12T19:25:31.320Z,14.84
2023-05-12T19:28:18.120Z,14.84
2023-05-12T19:31:05.009Z,14.81
2023-05-12T19:33:52.014Z,14.78
2023-05-12T19:36:39.051Z,14.74
2023-05-12T19:39:25.845Z,14.73
2023-05-12T19:42:12.656Z,14.71
2023-05-12T19:45:00.565Z,14.73
2023-05-12T19:47:47.458Z,14.73
2023-05-12T19:50:34.325Z,14.72
2023-05-12T19:53:21.525Z,14.71
2023-05-12T19:56:08.304Z,14.71
2023-05-12T19:58:55.183Z,14.71
2023-05-12T20:01:42.090Z,14.72
2023-05-12T20:04:28.963Z,14.68
2023-05-12T20:07:15.836Z,14.65
2023-05-12T20:10:03.156Z,14.65
2023-05-12T20:12:50.047Z,14.62
2023-05-12T20:15:36.986Z,14.61
2023-05-12T20:18:24.002Z,14.61
2023-05-12T20:21:10.896Z,14.61
2023-05-12T20:23:57.819Z,14.59
2023-05-12T20:26:44.690Z,14.57
2023-05-12T20:29:31.530Z,14.54
2023-05-12T20:32:18.424Z,14.50
2023-05-12T20:35:05.688Z,14.47
2023-05-12T20:37:52.649Z,14.45
2023-05-12T20:40:40.500Z,14.45
2023-05-12T20:43:27.511Z,14.47
2023-05-12T20:46:14.359Z,14.45
2023-05-12T20:49:02.822Z,14.44
2023-05-12T20:51:49.633Z,14.42
2023-05-12T20:54:36.490Z,14.39
2023-05-12T20:57:23.392Z,14.37
2023-05-12T21:00:11.220Z,14.34
2023-05-12T21:02:58.664Z,14.33
2023-05-12T21:05:48.228Z,14.31
2023-05-12T21:08:35.074Z,14.29
2023-05-12T21:11:22.308Z,14.26
2023-05-12T21:14:09.171Z,14.26
2023-05-12T21:16:56.006Z,14.24
2023-05-12T21:19:44.047Z,14.23
2023-05-12T21:22:31.231Z,14.19
2023-05-12T21:25:18.078Z,14.17
2023-05-12T21:28:05.275Z,14.16
2023-05-12T21:30:52.059Z,14.15
2023-05-12T21:33:38.908Z,14.14
2023-05-12T21:36:25.768Z,14.14
2023-05-12T21:39:12.636Z,14.15
2023-05-12T21:41:59.919Z,14.13
2023-05-12T21:44:50.462Z,14.12
2023-05-12T21:47:37.329Z,14.09
2023-05-12T21:50:24.139Z,14.06
2023-05-12T21:53:11.051Z,14.03
2023-05-12T21:55:58.091Z,14.01
2023-05-12T21:58:44.906Z,14.00
2023-05-12T22:01:31.788Z,14.01
2023-05-12T22:04:18.667Z,13.99
2023-05-12T22:07:06.038Z,13.96
2023-05-12T22:09:52.919Z,13.96
2023-05-12T22:12:40.596Z,13.93
2023-05-12T22:15:27.537Z,13.91
2023-05-12T22:18:14.568Z,13.87
2023-05-12T22:21:01.384Z,13.87
2023-05-12T22:23:48.268Z,13.87
2023-05-12T22:26:35.066Z,13.86
2023-05-12T22:29:21.915Z,13.84
2023-05-12T22:32:08.783Z,13.82
2023-05-12T22:34:55.997Z,13.81
2023-05-12T22:37:43.183Z,13.79
2023-05-12T22:40:30.650Z,13.77
2023-05-12T22:43:17.929Z,13.76
2023-05-12T22:46:07.644Z,13.77
2023-05-12T22:48:54.515Z,13.75
2023-05-12T22:51:41.304Z,13.73
2023-05-12T22:54:28.095Z,13.74
2023-05-12T22:57:15.275Z,13.71
2023-05-12T23:00:02.095Z,13.68
2023-05-12T23:02:48.984Z,13.67
2023-05-12T23:05:35.945Z,13.66
2023-05-12T23:08:22.835Z,13.65
2023-05-12T23:11:09.787Z,13.63
2023-05-12T23:13:56.571Z,13.63
2023-05-12T23:16:43.516Z,13.63
2023-05-12T23:19:30.439Z,13.61
2023-05-12T23:22:17.231Z,13.61
2023-05-12T23:25:04.206Z,13.60
2023-05-12T23:27:51.083Z,13.60
2023-05-12T23:30:37.936Z,13.59
2023-05-12T23:33:24.865Z,13.58
2023-05-12T23:36:13.465Z,13.57
2023-05-12T23:39:00.404Z,13.54
2023-05-12T23:41:47.199Z,13.53
2023-05-12T23:44:34.057Z,13.52
2023-05-12T23:47:21.076Z,13.53
2023-05-12T23:50:08.618Z,13.53
2023-05-12T23:52:56.454Z,13.51
2023-05-12T23:55:43.257Z,13.48
2023-05-12T23:58:30.080Z,13.48
